Buttonwillow, California
Current Conditions -  °F | °C
As of 5:54 PM on Tuesday 21 Oct 2014 (Local Time) from KBFL Reporting Station
Clear Clear  
Wind Chill: 69°   Ceiling: Unl
Heat Index: 69°   Visibility: 10mi
Dew Point: 42°   Wind: 0mph
Humidity: 38%   Direction: NA
Pressure: 29.97"   Gusts: NA
Location:  35.4°N, 119.47°W
Report Text: KBFL 220054Z 00000KT 10SM CLR 21/06 A2997 RMK AO2 SLP143 T02060056
Loading
Personal Weather Stations






























Interactive Weather Map
Tropical Storm Tracking
New forecast layout! Learn more

10-Day Weather Forecast

Advertisements
Track Severe Weather on mobile